Time,TemperatureF,DewpointF,PressureIn,WindDirection,WindDirectionDegrees,WindSpeedMPH,WindSpeedGustMPH,Humidity,HourlyPrecipIn,Conditions,Clouds,dailyrainin,SoftwareType,DateUTC
2013-10-24 00:00:00,43.2,36.2,30.17,NE,45,0.0,2.0,76,0.00,,,0.00,VWS V14.00,2013-10-24 05:00:00,
2013-10-24 00:05:00,43.1,36.4,30.17,NE,45,0.0,0.0,77,0.00,,,0.00,VWS V14.00,2013-10-24 05:05:00,
2013-10-24 00:10:00,43.0,36.3,30.17,NE,45,0.0,0.0,77,0.00,,,0.00,VWS V14.00,2013-10-24 05:10:00,
2013-10-24 00:15:00,43.0,36.6,30.17,NE,45,0.0,0.0,78,0.00,,,0.00,VWS V14.00,2013-10-24 05:15:00,
2013-10-24 00:20:00,42.9,36.5,30.17,NE,45,0.0,3.0,78,0.00,,,0.00,VWS V14.00,2013-10-24 05:20:00,
2013-10-24 00:25:00,42.9,36.5,30.17,NE,45,0.0,2.0,78,0.00,,,0.00,VWS V14.00,2013-10-24 05:25:00,
2013-10-24 00:30:00,42.8,36.4,30.17,NE,45,0.0,4.0,78,0.00,,,0.00,VWS V14.00,2013-10-24 05:30:00,
2013-10-24 00:35:00,42.7,36.0,30.17,NE,45,0.0,4.0,77,0.00,,,0.00,VWS V14.00,2013-10-24 05:35:00,
2013-10-24 00:40:00,42.5,35.8,30.18,NE,45,1.0,4.0,77,0.00,,,0.00,VWS V14.00,2013-10-24 05:40:00,
2013-10-24 00:45:00,42.3,35.9,30.18,NE,45,0.0,4.0,78,0.00,,,0.00,VWS V14.00,2013-10-24 05:45:00,
2013-10-24 00:50:00,42.0,35.7,30.18,NE,45,1.0,4.0,78,0.00,,,0.00,VWS V14.00,2013-10-24 05:50:00,
2013-10-24 00:55:00,41.6,35.6,30.19,NE,45,2.0,6.0,79,0.00,,,0.00,VWS V14.00,2013-10-24 05:55:00,
2013-10-24 01:00:00,41.3,35.6,30.19,NNW,338,2.0,6.0,80,0.00,,,0.00,VWS V14.00,2013-10-24 06:00:00,
2013-10-24 01:05:00,41.0,35.3,30.19,North,0,1.0,7.0,80,0.00,,,0.00,VWS V14.00,2013-10-24 06:05:00,
2013-10-24 01:10:00,40.6,34.9,30.19,North,0,2.0,6.0,80,0.00,,,0.00,VWS V14.00,2013-10-24 06:10:00,
2013-10-24 01:15:00,40.2,34.8,30.20,NNW,338,3.0,6.0,81,0.00,,,0.00,VWS V14.00,2013-10-24 06:15:00,
2013-10-24 01:20:00,39.8,34.5,30.19,North,0,2.0,5.0,81,0.00,,,0.00,VWS V14.00,2013-10-24 06:20:00,
2013-10-24 01:25:00,39.5,34.2,30.20,NNW,338,2.0,7.0,81,0.00,,,0.00,VWS V14.00,2013-10-24 06:25:00,
2013-10-24 01:30:00,39.1,34.1,30.20,NNW,338,2.0,7.0,82,0.00,,,0.00,VWS V14.00,2013-10-24 06:30:00,
2013-10-24 01:35:00,38.8,34.1,30.20,NNW,338,1.0,6.0,83,0.00,,,0.00,VWS V14.00,2013-10-24 06:35:00,
2013-10-24 01:40:00,38.6,33.9,30.20,NW,315,2.0,6.0,83,0.00,,,0.00,VWS V14.00,2013-10-24 06:40:00,
2013-10-24 01:45:00,38.3,33.6,30.20,North,0,2.0,6.0,83,0.00,,,0.00,VWS V14.00,2013-10-24 06:45:00,
2013-10-24 01:50:00,38.0,33.6,30.20,North,0,1.0,4.0,84,0.00,,,0.00,VWS V14.00,2013-10-24 06:50:00,
2013-10-24 01:55:00,37.7,33.3,30.20,NNW,338,1.0,4.0,84,0.00,,,0.00,VWS V14.00,2013-10-24 06:55:00,
2013-10-24 02:00:00,37.5,33.1,30.20,NNW,338,1.0,5.0,84,0.00,,,0.00,VWS V14.00,2013-10-24 07:00:00,
2013-10-24 02:05:00,37.3,33.2,30.20,North,0,1.0,6.0,85,0.00,,,0.00,VWS V14.00,2013-10-24 07:05:00,
2013-10-24 02:10:00,37.0,32.9,30.21,NNW,338,1.0,5.0,85,0.00,,,0.00,VWS V14.00,2013-10-24 07:10:00,
2013-10-24 02:15:00,36.8,32.7,30.21,NNW,338,1.0,5.0,85,0.00,,,0.00,VWS V14.00,2013-10-24 07:15:00,
2013-10-24 02:20:00,36.6,32.8,30.21,NNW,338,1.0,4.0,86,0.00,,,0.00,VWS V14.00,2013-10-24 07:20:00,
2013-10-24 02:25:00,36.5,33.0,30.21,NNW,338,1.0,4.0,87,0.00,,,0.00,VWS V14.00,2013-10-24 07:25:00,
2013-10-24 02:30:00,36.4,32.9,30.22,NW,315,1.0,5.0,87,0.00,,,0.00,VWS V14.00,2013-10-24 07:30:00,
2013-10-24 02:35:00,36.4,33.2,30.22,NW,315,1.0,3.0,88,0.00,,,0.00,VWS V14.00,2013-10-24 07:35:00,
2013-10-24 02:40:00,36.5,33.6,30.22,NW,315,1.0,4.0,89,0.00,,,0.00,VWS V14.00,2013-10-24 07:40:00,
2013-10-24 02:45:00,36.6,33.7,30.23,WNW,292,1.0,4.0,89,0.00,,,0.00,VWS V14.00,2013-10-24 07:45:00,
2013-10-24 02:50:00,36.8,34.2,30.23,WNW,292,1.0,4.0,90,0.00,,,0.00,VWS V14.00,2013-10-24 07:50:00,
2013-10-24 02:55:00,37.0,34.3,30.23,NW,315,1.0,3.0,90,0.00,,,0.00,VWS V14.00,2013-10-24 07:55:00,
2013-10-24 03:00:00,37.1,34.4,30.23,NW,315,1.0,4.0,90,0.00,,,0.00,VWS V14.00,2013-10-24 08:00:00,
2013-10-24 03:05:00,37.3,34.6,30.23,NW,315,1.0,5.0,90,0.00,,,0.00,VWS V14.00,2013-10-24 08:05:00,
2013-10-24 03:10:00,37.4,34.7,30.23,NW,315,1.0,3.0,90,0.00,,,0.00,VWS V14.00,2013-10-24 08:10:00,
2013-10-24 03:15:00,37.5,34.8,30.23,NW,315,1.0,4.0,90,0.00,,,0.00,VWS V14.00,2013-10-24 08:15:00,
2013-10-24 03:20:00,37.7,35.0,30.23,NW,315,1.0,4.0,90,0.00,,,0.00,VWS V14.00,2013-10-24 08:20:00,
2013-10-24 03:25:00,37.8,35.1,30.24,NW,315,2.0,5.0,90,0.00,,,0.00,VWS V14.00,2013-10-24 08:25:00,
2013-10-24 03:30:00,37.9,35.2,30.24,NW,315,2.0,9.0,90,0.00,,,0.00,VWS V14.00,2013-10-24 08:30:00,
2013-10-24 03:35:00,38.1,35.4,30.24,NW,315,3.0,6.0,90,0.00,,,0.00,VWS V14.00,2013-10-24 08:35:00,
2013-10-24 03:40:00,38.3,35.3,30.23,NW,315,2.0,6.0,89,0.00,,,0.00,VWS V14.00,2013-10-24 08:40:00,
2013-10-24 03:45:00,38.4,35.5,30.23,NNW,338,2.0,5.0,89,0.00,,,0.00,VWS V14.00,2013-10-24 08:45:00,
2013-10-24 03:50:00,38.6,35.6,30.23,NW,315,2.0,6.0,89,0.00,,,0.00,VWS V14.00,2013-10-24 08:50:00,
2013-10-24 03:55:00,38.8,35.8,30.23,NNW,338,2.0,6.0,89,0.00,,,0.00,VWS V14.00,2013-10-24 08:55:00,
2013-10-24 04:00:00,39.0,35.8,30.23,NW,315,2.0,6.0,88,0.00,,,0.00,VWS V14.00,2013-10-24 09:00:00,
2013-10-24 04:05:00,39.1,35.8,30.23,NW,315,2.0,6.0,88,0.00,,,0.00,VWS V14.00,2013-10-24 09:05:00,
2013-10-24 04:10:00,39.2,35.7,30.23,NNW,338,2.0,7.0,87,0.00,,,0.00,VWS V14.00,2013-10-24 09:10:00,
2013-10-24 04:15:00,39.3,35.8,30.24,NNW,338,2.0,7.0,87,0.00,,,0.00,VWS V14.00,2013-10-24 09:15:00,
2013-10-24 04:20:00,39.4,35.9,30.24,NW,315,3.0,7.0,87,0.00,,,0.00,VWS V14.00,2013-10-24 09:20:00,
2013-10-24 04:25:00,39.4,35.9,30.24,NNW,338,3.0,6.0,87,0.00,,,0.00,VWS V14.00,2013-10-24 09:25:00,
2013-10-24 04:30:00,39.5,36.0,30.25,NNW,338,2.0,7.0,87,0.00,,,0.00,VWS V14.00,2013-10-24 09:30:00,
2013-10-24 04:35:00,39.5,36.0,30.25,NW,315,2.0,7.0,87,0.00,,,0.00,VWS V14.00,2013-10-24 09:35:00,
2013-10-24 04:40:00,39.5,36.0,30.25,NW,315,3.0,7.0,87,0.00,,,0.00,VWS V14.00,2013-10-24 09:40:00,
2013-10-24 04:45:00,39.6,36.1,30.25,NNW,338,3.0,8.0,87,0.00,,,0.00,VWS V14.00,2013-10-24 09:45:00,
2013-10-24 04:50:00,39.5,35.7,30.25,NNW,338,3.0,7.0,86,0.00,,,0.00,VWS V14.00,2013-10-24 09:50:00,
2013-10-24 04:55:00,39.5,35.7,30.25,NW,315,2.0,8.0,86,0.00,,,0.00,VWS V14.00,2013-10-24 09:55:00,
2013-10-24 05:00:00,39.3,35.2,30.26,NW,315,2.0,8.0,85,0.00,,,0.00,VWS V14.00,2013-10-24 10:00:00,
2013-10-24 05:05:00,39.2,35.1,30.26,NNW,338,2.0,7.0,85,0.00,,,0.00,VWS V14.00,2013-10-24 10:05:00,
2013-10-24 05:10:00,39.0,34.9,30.26,NNW,338,2.0,6.0,85,0.00,,,0.00,VWS V14.00,2013-10-24 10:10:00,
2013-10-24 05:15:00,38.8,34.7,30.26,NNW,338,2.0,6.0,85,0.00,,,0.00,VWS V14.00,2013-10-24 10:15:00,
2013-10-24 05:20:00,38.5,34.4,30.27,NNW,338,2.0,6.0,85,0.00,,,0.00,VWS V14.00,2013-10-24 10:20:00,
2013-10-24 05:25:00,38.3,34.2,30.27,NNW,338,2.0,4.0,85,0.00,,,0.00,VWS V14.00,2013-10-24 10:25:00,
2013-10-24 05:30:00,38.0,33.9,30.28,NNW,338,1.0,4.0,85,0.00,,,0.00,VWS V14.00,2013-10-24 10:30:00,
2013-10-24 05:35:00,37.8,33.7,30.28,NNW,338,1.0,4.0,85,0.00,,,0.00,VWS V14.00,2013-10-24 10:35:00,
2013-10-24 05:40:00,37.5,33.4,30.28,NNW,338,1.0,3.0,85,0.00,,,0.00,VWS V14.00,2013-10-24 10:40:00,
2013-10-24 05:45:00,37.3,33.5,30.28,NNW,338,1.0,4.0,86,0.00,,,0.00,VWS V14.00,2013-10-24 10:45:00,
2013-10-24 05:50:00,37.1,33.3,30.28,NNW,338,2.0,4.0,86,0.00,,,0.00,VWS V14.00,2013-10-24 10:50:00,
2013-10-24 05:55:00,37.1,33.6,30.28,NNW,338,2.0,5.0,87,0.00,,,0.00,VWS V14.00,2013-10-24 10:55:00,
2013-10-24 06:00:00,37.1,33.9,30.29,NW,315,2.0,4.0,88,0.00,,,0.00,VWS V14.00,2013-10-24 11:00:00,
2013-10-24 06:05:00,37.2,34.3,30.29,NW,315,3.0,6.0,89,0.00,,,0.00,VWS V14.00,2013-10-24 11:05:00,
2013-10-24 06:10:00,37.3,34.4,30.29,NW,315,3.0,7.0,89,0.00,,,0.00,VWS V14.00,2013-10-24 11:10:00,
2013-10-24 06:15:00,37.5,34.8,30.29,NNW,338,4.0,11.0,90,0.00,,,0.00,VWS V14.00,2013-10-24 11:15:00,
2013-10-24 06:20:00,37.7,34.8,30.29,NNW,338,4.0,11.0,89,0.00,,,0.00,VWS V14.00,2013-10-24 11:20:00,
2013-10-24 06:25:00,37.9,35.0,30.30,NW,315,3.0,8.0,89,0.00,,,0.00,VWS V14.00,2013-10-24 11:25:00,
2013-10-24 06:30:00,38.0,35.0,30.30,NNW,338,3.0,6.0,89,0.00,,,0.00,VWS V14.00,2013-10-24 11:30:00,
2013-10-24 06:35:00,38.1,34.9,30.30,NW,315,3.0,8.0,88,0.00,,,0.00,VWS V14.00,2013-10-24 11:35:00,
2013-10-24 06:40:00,38.3,35.1,30.30,NW,315,2.0,5.0,88,0.00,,,0.00,VWS V14.00,2013-10-24 11:40:00,
2013-10-24 06:45:00,38.4,34.9,30.31,WNW,292,2.0,6.0,87,0.00,,,0.00,VWS V14.00,2013-10-24 11:45:00,
2013-10-24 06:50:00,38.4,34.9,30.31,NNW,338,2.0,7.0,87,0.00,,,0.00,VWS V14.00,2013-10-24 11:50:00,
2013-10-24 06:55:00,38.4,34.9,30.31,NNW,338,3.0,9.0,87,0.00,,,0.00,VWS V14.00,2013-10-24 11:55:00,
2013-10-24 07:00:00,38.4,34.6,30.31,NW,315,2.0,6.0,86,0.00,,,0.00,VWS V14.00,2013-10-24 12:00:00,
2013-10-24 07:05:00,38.4,34.6,30.31,NNW,338,2.0,6.0,86,0.00,,,0.00,VWS V14.00,2013-10-24 12:05:00,
2013-10-24 07:10:00,38.4,34.6,30.32,NNW,338,1.0,4.0,86,0.00,,,0.00,VWS V14.00,2013-10-24 12:10:00,
2013-10-24 07:15:00,38.3,34.2,30.32,North,0,1.0,5.0,85,0.00,,,0.00,VWS V14.00,2013-10-24 12:15:00,
2013-10-24 07:20:00,38.2,34.1,30.32,North,0,0.0,3.0,85,0.00,,,0.00,VWS V14.00,2013-10-24 12:20:00,
2013-10-24 07:25:00,38.0,33.6,30.32,North,0,0.0,0.0,84,0.00,,,0.00,VWS V14.00,2013-10-24 12:25:00,
2013-10-24 07:30:00,37.9,33.5,30.32,North,0,0.0,2.0,84,0.00,,,0.00,VWS V14.00,2013-10-24 12:30:00,
2013-10-24 07:35:00,37.8,33.7,30.32,North,0,0.0,0.0,85,0.00,,,0.00,VWS V14.00,2013-10-24 12:35:00,
2013-10-24 07:40:00,37.8,33.7,30.33,North,0,0.0,1.0,85,0.00,,,0.00,VWS V14.00,2013-10-24 12:40:00,
2013-10-24 07:45:00,37.8,33.7,30.33,North,0,0.0,3.0,85,0.00,,,0.00,VWS V14.00,2013-10-24 12:45:00,
2013-10-24 07:50:00,37.8,33.7,30.33,North,0,0.0,0.0,85,0.00,,,0.00,VWS V14.00,2013-10-24 12:50:00,
2013-10-24 07:55:00,37.7,33.6,30.33,North,0,0.0,0.0,85,0.00,,,0.00,VWS V14.00,2013-10-24 12:55:00,
2013-10-24 08:00:00,37.7,33.6,30.33,North,0,0.0,0.0,85,0.00,,,0.00,VWS V14.00,2013-10-24 13:00:00,
2013-10-24 08:05:00,37.5,33.1,30.33,North,0,0.0,0.0,84,0.00,,,0.00,VWS V14.00,2013-10-24 13:05:00,
2013-10-24 08:10:00,37.4,32.7,30.34,WNW,292,1.0,4.0,83,0.00,,,0.00,VWS V14.00,2013-10-24 13:10:00,
2013-10-24 08:15:00,37.1,32.4,30.34,NW,315,2.0,5.0,83,0.00,,,0.00,VWS V14.00,2013-10-24 13:15:00,
2013-10-24 08:20:00,36.9,32.2,30.34,NW,315,2.0,4.0,83,0.00,,,0.00,VWS V14.00,2013-10-24 13:20:00,
2013-10-24 08:25:00,36.8,32.1,30.34,NW,315,3.0,7.0,83,0.00,,,0.00,VWS V14.00,2013-10-24 13:25:00,
2013-10-24 08:30:00,36.8,32.4,30.35,NW,315,3.0,7.0,84,0.00,,,0.00,VWS V14.00,2013-10-24 13:30:00,
2013-10-24 08:35:00,36.8,32.4,30.35,NW,315,3.0,7.0,84,0.00,,,0.00,VWS V14.00,2013-10-24 13:35:00,
2013-10-24 08:40:00,36.8,32.4,30.35,NW,315,3.0,6.0,84,0.00,,,0.00,VWS V14.00,2013-10-24 13:40:00,
2013-10-24 08:45:00,36.9,32.5,30.35,NW,315,3.0,8.0,84,0.00,,,0.00,VWS V14.00,2013-10-24 13:45:00,
2013-10-24 08:50:00,37.0,32.0,30.35,NW,315,3.0,10.0,82,0.00,,,0.00,VWS V14.00,2013-10-24 13:50:00,
2013-10-24 08:55:00,37.2,31.9,30.36,NW,315,3.0,8.0,81,0.00,,,0.00,VWS V14.00,2013-10-24 13:55:00,
2013-10-24 09:00:00,37.6,32.0,30.36,NW,315,4.0,9.0,80,0.00,,,0.00,VWS V14.00,2013-10-24 14:00:00,
2013-10-24 09:05:00,38.0,32.7,30.36,NW,315,4.0,10.0,81,0.00,,,0.00,VWS V14.00,2013-10-24 14:05:00,
2013-10-24 09:10:00,38.4,32.8,30.36,NNW,338,5.0,11.0,80,0.00,,,0.00,VWS V14.00,2013-10-24 14:10:00,
2013-10-24 09:15:00,38.9,32.0,30.36,NW,315,6.0,17.0,76,0.00,,,0.00,VWS V14.00,2013-10-24 14:15:00,
2013-10-24 09:20:00,39.5,32.6,30.36,NW,315,4.0,12.0,76,0.00,,,0.00,VWS V14.00,2013-10-24 14:20:00,
2013-10-24 09:25:00,40.1,32.5,30.37,NNW,338,6.0,15.0,74,0.00,,,0.00,VWS V14.00,2013-10-24 14:25:00,
2013-10-24 09:30:00,40.6,32.3,30.37,NW,315,6.0,20.0,72,0.00,,,0.00,VWS V14.00,2013-10-24 14:30:00,
2013-10-24 09:35:00,41.1,32.1,30.37,NNW,338,5.0,20.0,70,0.00,,,0.00,VWS V14.00,2013-10-24 14:35:00,
2013-10-24 09:40:00,41.5,31.7,30.37,NW,315,8.0,17.0,68,0.00,,,0.00,VWS V14.00,2013-10-24 14:40:00,
2013-10-24 09:45:00,41.8,32.0,30.37,NW,315,5.0,13.0,68,0.00,,,0.00,VWS V14.00,2013-10-24 14:45:00,
2013-10-24 09:50:00,42.0,31.5,30.37,NW,315,7.0,16.0,66,0.00,,,0.00,VWS V14.00,2013-10-24 14:50:00,
2013-10-24 09:55:00,42.3,31.4,30.37,NW,315,5.0,11.0,65,0.00,,,0.00,VWS V14.00,2013-10-24 14:55:00,
2013-10-24 10:00:00,42.6,31.7,30.37,NW,315,6.0,16.0,65,0.00,,,0.00,VWS V14.00,2013-10-24 15:00:00,
2013-10-24 10:05:00,42.9,31.6,30.38,NW,315,6.0,16.0,64,0.00,,,0.00,VWS V14.00,2013-10-24 15:05:00,
2013-10-24 10:10:00,43.2,31.1,30.38,NW,315,7.0,18.0,62,0.00,,,0.00,VWS V14.00,2013-10-24 15:10:00,
2013-10-24 10:15:00,43.4,30.9,30.38,NW,315,7.0,18.0,61,0.00,,,0.00,VWS V14.00,2013-10-24 15:15:00,
2013-10-24 10:20:00,43.7,30.7,30.38,NW,315,8.0,16.0,60,0.00,,,0.00,VWS V14.00,2013-10-24 15:20:00,
2013-10-24 10:25:00,44.0,30.6,30.38,NW,315,6.0,16.0,59,0.00,,,0.00,VWS V14.00,2013-10-24 15:25:00,
2013-10-24 10:30:00,44.2,30.4,30.38,NNW,338,5.0,13.0,58,0.00,,,0.00,VWS V14.00,2013-10-24 15:30:00,
2013-10-24 10:35:00,44.5,28.9,30.38,NNW,338,8.0,17.0,54,0.00,,,0.00,VWS V14.00,2013-10-24 15:35:00,
2013-10-24 10:40:00,44.8,29.6,30.38,NNW,338,7.0,18.0,55,0.00,,,0.00,VWS V14.00,2013-10-24 15:40:00,
2013-10-24 10:45:00,45.1,29.5,30.38,NW,315,6.0,18.0,54,0.00,,,0.00,VWS V14.00,2013-10-24 15:45:00,
2013-10-24 10:50:00,45.6,29.9,30.38,WNW,292,7.0,18.0,54,0.00,,,0.00,VWS V14.00,2013-10-24 15:50:00,
2013-10-24 10:55:00,46.0,29.8,30.38,NW,315,7.0,17.0,53,0.00,,,0.00,VWS V14.00,2013-10-24 15:55:00,
2013-10-24 11:00:00,46.3,29.6,30.39,NNW,338,7.0,15.0,52,0.00,,,0.00,VWS V14.00,2013-10-24 16:00:00,
2013-10-24 11:05:00,46.7,29.1,30.39,NW,315,7.0,15.0,50,0.00,,,0.00,VWS V14.00,2013-10-24 16:05:00,
2013-10-24 11:10:00,47.2,28.5,30.39,NW,315,7.0,13.0,48,0.00,,,0.00,VWS V14.00,2013-10-24 16:10:00,
2013-10-24 11:15:00,47.7,29.0,30.39,NNW,338,5.0,11.0,48,0.00,,,0.00,VWS V14.00,2013-10-24 16:15:00,
2013-10-24 11:20:00,48.5,29.7,30.39,NW,315,8.0,16.0,48,0.00,,,0.00,VWS V14.00,2013-10-24 16:20:00,
2013-10-24 11:25:00,49.5,28.5,30.39,WNW,292,7.0,12.0,44,0.00,,,0.00,VWS V14.00,2013-10-24 16:25:00,
2013-10-24 11:30:00,50.4,29.9,30.39,WNW,292,6.0,16.0,45,0.00,,,0.00,VWS V14.00,2013-10-24 16:30:00,
2013-10-24 11:35:00,51.3,30.1,30.39,NNW,338,5.0,15.0,44,0.00,,,0.00,VWS V14.00,2013-10-24 16:35:00,
2013-10-24 11:40:00,52.2,31.0,30.39,NW,315,5.0,14.0,44,0.00,,,0.00,VWS V14.00,2013-10-24 16:40:00,
2013-10-24 11:45:00,53.1,30.0,30.40,NNW,338,7.0,13.0,41,0.00,,,0.00,VWS V14.00,2013-10-24 16:45:00,
2013-10-24 11:50:00,53.9,31.4,30.40,NW,315,6.0,17.0,42,0.00,,,0.00,VWS V14.00,2013-10-24 16:50:00,
2013-10-24 11:55:00,54.5,29.4,30.40,NW,315,10.0,19.0,38,0.00,,,0.00,VWS V14.00,2013-10-24 16:55:00,
2013-10-24 12:00:00,55.0,29.2,30.40,North,0,5.0,13.0,37,0.00,,,0.00,VWS V14.00,2013-10-24 17:00:00,
2013-10-24 12:05:00,55.5,29.7,30.40,NNW,338,8.0,15.0,37,0.00,,,0.00,VWS V14.00,2013-10-24 17:05:00,
2013-10-24 12:10:00,55.9,30.7,30.40,NNW,338,8.0,17.0,38,0.00,,,0.00,VWS V14.00,2013-10-24 17:10:00,
2013-10-24 12:15:00,56.4,29.1,30.40,NW,315,4.0,13.0,35,0.00,,,0.00,VWS V14.00,2013-10-24 17:15:00,
2013-10-24 12:20:00,56.7,29.4,30.40,NW,315,4.0,12.0,35,0.00,,,0.00,VWS V14.00,2013-10-24 17:20:00,
2013-10-24 12:25:00,56.8,29.5,30.40,NNW,338,5.0,14.0,35,0.00,,,0.00,VWS V14.00,2013-10-24 17:25:00,
2013-10-24 12:30:00,57.1,29.7,30.40,NW,315,7.0,14.0,35,0.00,,,0.00,VWS V14.00,2013-10-24 17:30:00,
2013-10-24 12:35:00,57.3,29.9,30.40,NW,315,5.0,11.0,35,0.00,,,0.00,VWS V14.00,2013-10-24 17:35:00,
2013-10-24 12:40:00,57.5,29.4,30.40,NW,315,7.0,13.0,34,0.00,,,0.00,VWS V14.00,2013-10-24 17:40:00,
2013-10-24 12:45:00,57.5,30.1,30.39,WNW,292,5.0,11.0,35,0.00,,,0.00,VWS V14.00,2013-10-24 17:45:00,
2013-10-24 12:50:00,57.8,30.4,30.39,NW,315,7.0,15.0,35,0.00,,,0.00,VWS V14.00,2013-10-24 17:50:00,
2013-10-24 12:55:00,58.0,30.5,30.39,NW,315,6.0,12.0,35,0.00,,,0.00,VWS V14.00,2013-10-24 17:55:00,
2013-10-24 13:00:00,58.0,29.1,30.39,WNW,292,7.0,12.0,33,0.00,,,0.00,VWS V14.00,2013-10-24 18:00:00,
2013-10-24 13:05:00,58.0,29.8,30.38,NW,315,4.0,13.0,34,0.00,,,0.00,VWS V14.00,2013-10-24 18:05:00,
2013-10-24 13:10:00,58.2,31.4,30.39,NW,315,7.0,18.0,36,0.00,,,0.00,VWS V14.00,2013-10-24 18:10:00,
2013-10-24 13:15:00,58.5,31.7,30.39,WNW,292,7.0,16.0,36,0.00,,,0.00,VWS V14.00,2013-10-24 18:15:00,
2013-10-24 13:20:00,58.9,29.1,30.38,North,0,5.0,14.0,32,0.00,,,0.00,VWS V14.00,2013-10-24 18:20:00,
2013-10-24 13:25:00,58.7,29.7,30.38,NW,315,7.0,19.0,33,0.00,,,0.00,VWS V14.00,2013-10-24 18:25:00,
2013-10-24 13:30:00,58.7,30.4,30.38,NW,315,5.0,12.0,34,0.00,,,0.00,VWS V14.00,2013-10-24 18:30:00,
2013-10-24 13:35:00,59.0,30.7,30.38,NNW,338,4.0,13.0,34,0.00,,,0.00,VWS V14.00,2013-10-24 18:35:00,
2013-10-24 13:40:00,58.6,28.1,30.38,NW,315,9.0,20.0,31,0.00,,,0.00,VWS V14.00,2013-10-24 18:40:00,
2013-10-24 13:45:00,58.4,28.7,30.38,NW,315,6.0,15.0,32,0.00,,,0.00,VWS V14.00,2013-10-24 18:45:00,
2013-10-24 13:50:00,58.4,27.9,30.37,NW,315,8.0,15.0,31,0.00,,,0.00,VWS V14.00,2013-10-24 18:50:00,
2013-10-24 13:55:00,58.4,27.9,30.37,WNW,292,6.0,13.0,31,0.00,,,0.00,VWS V14.00,2013-10-24 18:55:00,
2013-10-24 14:00:00,58.6,28.1,30.37,WNW,292,8.0,15.0,31,0.00,,,0.00,VWS V14.00,2013-10-24 19:00:00,
2013-10-24 14:05:00,58.6,28.1,30.37,NW,315,7.0,15.0,31,0.00,,,0.00,VWS V14.00,2013-10-24 19:05:00,
2013-10-24 14:10:00,58.5,28.0,30.37,NW,315,5.0,13.0,31,0.00,,,0.00,VWS V14.00,2013-10-24 19:10:00,
2013-10-24 14:15:00,58.7,28.2,30.36,WNW,292,5.0,14.0,31,0.00,,,0.00,VWS V14.00,2013-10-24 19:15:00,
2013-10-24 14:20:00,58.8,28.3,30.37,WNW,292,5.0,15.0,31,0.00,,,0.00,VWS V14.00,2013-10-24 19:20:00,
2013-10-24 14:25:00,59.0,26.8,30.37,WNW,292,6.0,12.0,29,0.00,,,0.00,VWS V14.00,2013-10-24 19:25:00,
2013-10-24 14:30:00,59.2,27.0,30.36,NW,315,3.0,11.0,29,0.00,,,0.00,VWS V14.00,2013-10-24 19:30:00,
2013-10-24 14:35:00,59.2,27.0,30.36,NW,315,9.0,18.0,29,0.00,,,0.00,VWS V14.00,2013-10-24 19:35:00,
2013-10-24 14:40:00,59.0,27.6,30.36,WNW,292,9.0,18.0,30,0.00,,,0.00,VWS V14.00,2013-10-24 19:40:00,
2013-10-24 14:45:00,58.9,27.5,30.36,NW,315,5.0,12.0,30,0.00,,,0.00,VWS V14.00,2013-10-24 19:45:00,
2013-10-24 14:50:00,58.8,27.5,30.36,NW,315,6.0,15.0,30,0.00,,,0.00,VWS V14.00,2013-10-24 19:50:00,
2013-10-24 14:55:00,58.7,27.4,30.36,NW,315,6.0,16.0,30,0.00,,,0.00,VWS V14.00,2013-10-24 19:55:00,
2013-10-24 15:00:00,58.7,26.5,30.36,NW,315,5.0,14.0,29,0.00,,,0.00,VWS V14.00,2013-10-24 20:00:00,
2013-10-24 15:05:00,58.7,27.4,30.37,NW,315,5.0,14.0,30,0.00,,,0.00,VWS V14.00,2013-10-24 20:05:00,
2013-10-24 15:10:00,58.9,27.5,30.37,NW,315,4.0,13.0,30,0.00,,,0.00,VWS V14.00,2013-10-24 20:10:00,
2013-10-24 15:15:00,58.7,28.2,30.36,NNW,338,7.0,15.0,31,0.00,,,0.00,VWS V14.00,2013-10-24 20:15:00,
2013-10-24 15:20:00,58.8,28.3,30.36,NNW,338,5.0,13.0,31,0.00,,,0.00,VWS V14.00,2013-10-24 20:20:00,
2013-10-24 15:25:00,58.3,26.2,30.36,NNW,338,3.0,11.0,29,0.00,,,0.00,VWS V14.00,2013-10-24 20:25:00,
2013-10-24 15:30:00,58.0,26.8,30.36,NW,315,6.0,18.0,30,0.00,,,0.00,VWS V14.00,2013-10-24 20:30:00,
2013-10-24 15:35:00,57.3,27.7,30.36,NW,315,8.0,17.0,32,0.00,,,0.00,VWS V14.00,2013-10-24 20:35:00,
2013-10-24 15:40:00,56.6,27.1,30.36,NW,315,5.0,14.0,32,0.00,,,0.00,VWS V14.00,2013-10-24 20:40:00,
2013-10-24 15:45:00,55.9,26.5,30.36,NW,315,4.0,14.0,32,0.00,,,0.00,VWS V14.00,2013-10-24 20:45:00,
2013-10-24 15:50:00,55.1,26.5,30.36,NNW,338,6.0,16.0,33,0.00,,,0.00,VWS V14.00,2013-10-24 20:50:00,
2013-10-24 15:55:00,54.3,26.5,30.36,NW,315,5.0,16.0,34,0.00,,,0.00,VWS V14.00,2013-10-24 20:55:00,
2013-10-24 16:00:00,53.7,26.7,30.36,NW,315,8.0,18.0,35,0.00,,,0.00,VWS V14.00,2013-10-24 21:00:00,
2013-10-24 16:05:00,53.1,26.9,30.36,NW,315,5.0,11.0,36,0.00,,,0.00,VWS V14.00,2013-10-24 21:05:00,
2013-10-24 16:10:00,52.7,27.2,30.36,WNW,292,4.0,10.0,37,0.00,,,0.00,VWS V14.00,2013-10-24 21:10:00,
2013-10-24 16:15:00,52.4,25.6,30.36,NNW,338,5.0,11.0,35,0.00,,,0.00,VWS V14.00,2013-10-24 21:15:00,
2013-10-24 16:20:00,52.3,28.7,30.36,NNW,338,3.0,10.0,40,0.00,,,0.00,VWS V14.00,2013-10-24 21:20:00,
2013-10-24 16:25:00,52.4,27.6,30.36,NW,315,2.0,10.0,38,0.00,,,0.00,VWS V14.00,2013-10-24 21:25:00,
2013-10-24 16:30:00,52.6,27.1,30.36,NW,315,6.0,12.0,37,0.00,,,0.00,VWS V14.00,2013-10-24 21:30:00,
2013-10-24 16:35:00,52.8,26.6,30.36,North,0,5.0,14.0,36,0.00,,,0.00,VWS V14.00,2013-10-24 21:35:00,
2013-10-24 16:40:00,53.0,26.8,30.36,NW,315,4.0,10.0,36,0.00,,,0.00,VWS V14.00,2013-10-24 21:40:00,
2013-10-24 16:45:00,53.2,25.6,30.36,NW,315,2.0,9.0,34,0.00,,,0.00,VWS V14.00,2013-10-24 21:45:00,
2013-10-24 16:50:00,53.1,26.9,30.36,North,0,2.0,15.0,36,0.00,,,0.00,VWS V14.00,2013-10-24 21:50:00,
2013-10-24 16:55:00,52.5,26.3,30.35,North,0,6.0,17.0,36,0.00,,,0.00,VWS V14.00,2013-10-24 21:55:00,
2013-10-24 17:00:00,51.7,25.6,30.36,NNW,338,5.0,12.0,36,0.00,,,0.00,VWS V14.00,2013-10-24 22:00:00,
2013-10-24 17:05:00,51.0,26.3,30.36,NNW,338,6.0,14.0,38,0.00,,,0.00,VWS V14.00,2013-10-24 22:05:00,
2013-10-24 17:10:00,50.5,25.9,30.36,NW,315,5.0,12.0,38,0.00,,,0.00,VWS V14.00,2013-10-24 22:10:00,
2013-10-24 17:15:00,49.9,25.3,30.36,NW,315,4.0,11.0,38,0.00,,,0.00,VWS V14.00,2013-10-24 22:15:00,
2013-10-24 17:20:00,49.5,27.4,30.36,NW,315,1.0,2.0,42,0.00,,,0.00,VWS V14.00,2013-10-24 22:20:00,
2013-10-24 17:25:00,49.1,27.0,30.36,NNW,338,1.0,4.0,42,0.00,,,0.00,VWS V14.00,2013-10-24 22:25:00,
2013-10-24 17:30:00,48.7,26.1,30.36,North,0,4.0,9.0,41,0.00,,,0.00,VWS V14.00,2013-10-24 22:30:00,
2013-10-24 17:35:00,48.4,26.4,30.36,NNW,338,0.0,2.0,42,0.00,,,0.00,VWS V14.00,2013-10-24 22:35:00,
2013-10-24 17:40:00,48.1,26.1,30.36,NNW,338,0.0,3.0,42,0.00,,,0.00,VWS V14.00,2013-10-24 22:40:00,
2013-10-24 17:45:00,47.8,25.3,30.36,North,0,2.0,7.0,41,0.00,,,0.00,VWS V14.00,2013-10-24 22:45:00,
2013-10-24 17:50:00,47.5,27.2,30.36,North,0,1.0,8.0,45,0.00,,,0.00,VWS V14.00,2013-10-24 22:50:00,
2013-10-24 17:55:00,47.2,25.3,30.37,North,0,0.0,6.0,42,0.00,,,0.00,VWS V14.00,2013-10-24 22:55:00,
2013-10-24 18:00:00,46.9,26.7,30.37,North,0,1.0,6.0,45,0.00,,,0.00,VWS V14.00,2013-10-24 23:00:00,
2013-10-24 18:05:00,46.5,27.9,30.37,NNW,338,2.0,7.0,48,0.00,,,0.00,VWS V14.00,2013-10-24 23:05:00,
2013-10-24 18:10:00,46.1,26.5,30.37,North,0,1.0,5.0,46,0.00,,,0.00,VWS V14.00,2013-10-24 23:10:00,
2013-10-24 18:15:00,45.7,26.1,30.37,North,0,1.0,6.0,46,0.00,,,0.00,VWS V14.00,2013-10-24 23:15:00,
2013-10-24 18:20:00,45.4,25.3,30.37,North,0,0.0,1.0,45,0.00,,,0.00,VWS V14.00,2013-10-24 23:20:00,
2013-10-24 18:25:00,45.1,25.6,30.37,NNE,22,0.0,4.0,46,0.00,,,0.00,VWS V14.00,2013-10-24 23:25:00,
2013-10-24 18:30:00,44.7,25.2,30.38,NNE,22,0.0,1.0,46,0.00,,,0.00,VWS V14.00,2013-10-24 23:30:00,
2013-10-24 18:35:00,44.3,24.8,30.38,NNE,22,0.0,1.0,46,0.00,,,0.00,VWS V14.00,2013-10-24 23:35:00,
2013-10-24 18:43:00,44.3,24.8,30.38,NNE,22,0.0,1.0,46,0.00,,,0.00,VWS V14.00,2013-10-24 23:43:00,
2013-10-24 18:44:00,43.7,24.8,30.38,North,9,0.0,0.0,47,0.00,,,0.00,VWS V14.00,2013-10-24 23:44:00,
2013-10-24 18:45:00,43.6,24.7,30.38,North,10,0.0,0.0,47,0.00,,,0.00,VWS V14.00,2013-10-24 23:45:00,
2013-10-24 18:49:00,43.3,24.9,30.38,North,6,0.0,0.0,48,0.00,,,0.00,VWS V14.00,2013-10-24 23:49:00,
2013-10-24 18:50:00,43.2,24.9,30.39,North,6,0.0,0.0,48,0.00,,,0.00,VWS V14.00,2013-10-24 23:50:00,
2013-10-24 18:54:00,42.9,24.6,30.39,North,6,0.0,0.0,48,0.00,,,0.00,VWS V14.00,2013-10-24 23:54:00,
2013-10-24 18:55:00,42.8,24.5,30.39,North,6,0.0,0.0,48,0.00,,,0.00,VWS V14.00,2013-10-24 23:55:00,
2013-10-24 18:59:00,42.6,24.8,30.39,North,6,0.0,0.0,49,0.00,,,0.00,VWS V14.00,2013-10-24 23:59:00,
2013-10-24 19:00:00,42.5,24.7,30.39,North,6,0.0,0.0,49,0.00,,,0.00,VWS V14.00,2013-10-25 00:00:00,
2013-10-24 19:04:00,42.2,24.9,30.39,North,6,0.0,0.0,50,0.00,,,0.00,VWS V14.00,2013-10-25 00:04:00,
2013-10-24 19:05:00,42.2,24.9,30.39,North,356,0.0,0.0,50,0.00,,,0.00,VWS V14.00,2013-10-25 00:05:00,
2013-10-24 19:09:00,41.9,25.1,30.39,North,356,0.0,0.0,51,0.00,,,0.00,VWS V14.00,2013-10-25 00:09:00,
2013-10-24 19:10:00,41.8,25.0,30.39,North,356,0.0,0.0,51,0.00,,,0.00,VWS V14.00,2013-10-25 00:10:00,
2013-10-24 19:14:00,41.5,24.7,30.39,North,356,0.0,0.0,51,0.00,,,0.00,VWS V14.00,2013-10-25 00:14:00,
2013-10-24 19:15:00,41.4,25.1,30.39,North,356,0.0,0.0,52,0.00,,,0.00,VWS V14.00,2013-10-25 00:15:00,
2013-10-24 19:19:00,41.2,24.9,30.39,North,350,0.0,0.0,52,0.00,,,0.00,VWS V14.00,2013-10-25 00:19:00,
2013-10-24 19:20:00,41.1,24.8,30.39,North,350,0.0,0.0,52,0.00,,,0.00,VWS V14.00,2013-10-25 00:20:00,
2013-10-24 19:24:00,40.8,25.5,30.40,North,349,0.0,0.0,54,0.00,,,0.00,VWS V14.00,2013-10-25 00:24:00,
2013-10-24 19:25:00,40.7,25.4,30.39,North,349,0.0,0.0,54,0.00,,,0.00,VWS V14.00,2013-10-25 00:25:00,
2013-10-24 19:29:00,40.5,25.6,30.40,NNW,338,0.0,0.0,55,0.00,,,0.00,VWS V14.00,2013-10-25 00:29:00,
2013-10-24 19:30:00,40.4,25.5,30.40,NNW,338,0.0,0.0,55,0.00,,,0.00,VWS V14.00,2013-10-25 00:30:00,
2013-10-24 19:34:00,40.1,25.2,30.40,NNW,338,0.0,0.0,55,0.00,,,0.00,VWS V14.00,2013-10-25 00:34:00,
2013-10-24 19:35:00,40.0,25.1,30.40,NNW,338,0.0,0.0,55,0.00,,,0.00,VWS V14.00,2013-10-25 00:35:00,
2013-10-24 19:39:00,39.8,25.4,30.40,NNW,338,0.0,0.0,56,0.00,,,0.00,VWS V14.00,2013-10-25 00:39:00,
2013-10-24 19:40:00,39.7,25.7,30.40,NNW,333,0.0,0.0,57,0.00,,,0.00,VWS V14.00,2013-10-25 00:40:00,
2013-10-24 19:44:00,39.4,25.0,30.40,NNW,333,0.0,0.0,56,0.00,,,0.00,VWS V14.00,2013-10-25 00:44:00,
2013-10-24 19:45:00,39.3,24.9,30.40,NNW,333,0.0,0.0,56,0.00,,,0.00,VWS V14.00,2013-10-25 00:45:00,
2013-10-24 19:49:00,39.2,25.7,30.40,NNW,333,0.0,0.0,58,0.00,,,0.00,VWS V14.00,2013-10-25 00:49:00,
2013-10-24 19:50:00,39.1,26.0,30.40,NNW,333,0.0,0.0,59,0.00,,,0.00,VWS V14.00,2013-10-25 00:50:00,
2013-10-24 19:54:00,38.8,25.7,30.40,NNW,333,0.0,0.0,59,0.00,,,0.00,VWS V14.00,2013-10-25 00:54:00,
2013-10-24 19:55:00,38.7,25.6,30.40,NNW,333,0.0,0.0,59,0.00,,,0.00,VWS V14.00,2013-10-25 00:55:00,
2013-10-24 19:59:00,38.5,25.4,30.41,NNW,333,0.0,0.0,59,0.00,,,0.00,VWS V14.00,2013-10-25 00:59:00,
2013-10-24 20:06:00,38.5,25.4,30.41,North,0,0.0,0.0,59,0.00,,,0.00,VWS V14.00,2013-10-25 01:06:00,
2013-10-24 20:14:00,38.3,25.2,30.41,North,0,0.0,0.0,59,0.00,,,0.00,VWS V14.00,2013-10-25 01:14:00,
2013-10-24 20:19:00,37.7,25.5,30.41,NNW,333,0.0,0.0,61,0.00,,,0.00,VWS V14.00,2013-10-25 01:19:00,
2013-10-24 20:24:00,37.5,25.7,30.41,NNW,333,0.0,0.0,62,0.00,,,0.00,VWS V14.00,2013-10-25 01:24:00,
2013-10-24 20:29:00,37.2,26.2,30.41,NNW,333,0.0,0.0,64,0.00,,,0.00,VWS V14.00,2013-10-25 01:29:00,
2013-10-24 20:34:00,37.0,26.3,30.41,NNW,338,0.0,0.0,65,0.00,,,0.00,VWS V14.00,2013-10-25 01:34:00,
2013-10-24 20:39:00,36.7,25.7,30.42,NNW,338,0.0,0.0,64,0.00,,,0.00,VWS V14.00,2013-10-25 01:39:00,
2013-10-24 20:44:00,36.5,26.2,30.42,NNW,338,0.0,0.0,66,0.00,,,0.00,VWS V14.00,2013-10-25 01:44:00,
2013-10-24 20:49:00,36.2,26.3,30.42,NNW,338,0.0,0.0,67,0.00,,,0.00,VWS V14.00,2013-10-25 01:49:00,
2013-10-24 20:54:00,35.8,26.3,30.42,NNW,338,0.0,0.0,68,0.00,,,0.00,VWS V14.00,2013-10-25 01:54:00,
2013-10-24 20:59:00,35.5,26.0,30.42,NNW,338,0.0,0.0,68,0.00,,,0.00,VWS V14.00,2013-10-25 01:59:00,
2013-10-24 21:04:00,35.2,26.1,30.42,NNW,338,0.0,0.0,69,0.00,,,0.00,VWS V14.00,2013-10-25 02:04:00,
2013-10-24 21:09:00,34.9,26.1,30.42,NNW,338,0.0,0.0,70,0.00,,,0.00,VWS V14.00,2013-10-25 02:09:00,
2013-10-24 21:14:00,34.7,25.9,30.42,NNW,338,0.0,0.0,70,0.00,,,0.00,VWS V14.00,2013-10-25 02:14:00,
2013-10-24 21:19:00,34.4,26.0,30.43,NNW,338,0.0,0.0,71,0.00,,,0.00,VWS V14.00,2013-10-25 02:19:00,
2013-10-24 21:24:00,34.2,26.1,30.43,NNW,338,0.0,0.0,72,0.00,,,0.00,VWS V14.00,2013-10-25 02:24:00,
2013-10-24 21:29:00,34.0,26.3,30.43,NNW,338,0.0,0.0,73,0.00,,,0.00,VWS V14.00,2013-10-25 02:29:00,
2013-10-24 21:34:00,33.7,26.3,30.43,NNW,338,0.0,0.0,74,0.00,,,0.00,VWS V14.00,2013-10-25 02:34:00,
2013-10-24 21:39:00,33.4,26.0,30.43,NNW,338,0.0,0.0,74,0.00,,,0.00,VWS V14.00,2013-10-25 02:39:00,
2013-10-24 21:44:00,33.0,26.0,30.44,NNW,338,0.0,0.0,75,0.00,,,0.00,VWS V14.00,2013-10-25 02:44:00,
2013-10-24 21:49:00,32.7,26.3,30.44,NNW,338,0.0,0.0,77,0.00,,,0.00,VWS V14.00,2013-10-25 02:49:00,
2013-10-24 21:54:00,32.6,26.2,30.44,NNW,338,0.0,0.0,77,0.00,,,0.00,VWS V14.00,2013-10-25 02:54:00,
2013-10-24 21:59:00,32.5,26.4,30.44,NNW,338,0.0,0.0,78,0.00,,,0.00,VWS V14.00,2013-10-25 02:59:00,
2013-10-24 22:04:00,32.4,26.3,30.44,NNW,338,0.0,0.0,78,0.00,,,0.00,VWS V14.00,2013-10-25 03:04:00,
2013-10-24 22:09:00,32.3,26.2,30.44,NNW,338,0.0,0.0,78,0.00,,,0.00,VWS V14.00,2013-10-25 03:09:00,
2013-10-24 22:15:00,32.1,26.3,30.44,North,0,0.0,0.0,79,0.00,,,0.00,VWS V14.00,2013-10-25 03:15:00,
2013-10-24 22:20:00,32.0,26.2,30.44,North,0,0.0,0.0,79,0.00,,,0.00,VWS V14.00,2013-10-25 03:20:00,
2013-10-24 22:25:00,31.9,26.4,30.45,North,0,0.0,0.0,80,0.00,,,0.00,VWS V14.00,2013-10-25 03:25:00,
2013-10-24 22:30:00,31.7,26.2,30.45,North,0,0.0,0.0,80,0.00,,,0.00,VWS V14.00,2013-10-25 03:30:00,
2013-10-24 22:35:00,31.5,26.0,30.45,North,0,0.0,0.0,80,0.00,,,0.00,VWS V14.00,2013-10-25 03:35:00,
2013-10-24 22:40:00,31.3,25.9,30.45,North,0,0.0,0.0,80,0.00,,,0.00,VWS V14.00,2013-10-25 03:40:00,
2013-10-24 22:45:00,31.1,26.0,30.45,North,0,0.0,0.0,81,0.00,,,0.00,VWS V14.00,2013-10-25 03:45:00,
2013-10-24 22:50:00,30.9,26.1,30.45,North,0,0.0,0.0,82,0.00,,,0.00,VWS V14.00,2013-10-25 03:50:00,
2013-10-24 22:55:00,30.8,26.0,30.45,North,0,0.0,0.0,82,0.00,,,0.00,VWS V14.00,2013-10-25 03:55:00,
2013-10-24 23:00:00,30.6,26.1,30.45,North,0,0.0,0.0,83,0.00,,,0.00,VWS V14.00,2013-10-25 04:00:00,
2013-10-24 23:05:00,30.6,26.4,30.45,North,0,0.0,0.0,84,0.00,,,0.00,VWS V14.00,2013-10-25 04:05:00,
2013-10-24 23:10:00,30.5,26.2,30.45,North,0,0.0,0.0,84,0.00,,,0.00,VWS V14.00,2013-10-25 04:10:00,
2013-10-24 23:15:00,30.5,26.2,30.45,North,0,0.0,0.0,84,0.00,,,0.00,VWS V14.00,2013-10-25 04:15:00,
2013-10-24 23:20:00,30.5,26.2,30.46,North,0,0.0,0.0,84,0.00,,,0.00,VWS V14.00,2013-10-25 04:20:00,
2013-10-24 23:25:00,30.4,26.1,30.46,North,0,0.0,0.0,84,0.00,,,0.00,VWS V14.00,2013-10-25 04:25:00,
2013-10-24 23:30:00,30.2,26.0,30.46,North,0,0.0,0.0,84,0.00,,,0.00,VWS V14.00,2013-10-25 04:30:00,
2013-10-24 23:35:00,30.1,25.9,30.46,North,0,0.0,0.0,84,0.00,,,0.00,VWS V14.00,2013-10-25 04:35:00,
2013-10-24 23:40:00,30.0,25.8,30.46,North,0,0.0,0.0,84,0.00,,,0.00,VWS V14.00,2013-10-25 04:40:00,
2013-10-24 23:45:00,29.9,26.0,30.46,North,0,0.0,0.0,85,0.00,,,0.00,VWS V14.00,2013-10-25 04:45:00,
2013-10-24 23:50:00,29.9,26.0,30.46,North,0,0.0,0.0,85,0.00,,,0.00,VWS V14.00,2013-10-25 04:50:00,
2013-10-24 23:55:00,29.8,25.9,30.46,North,0,0.0,0.0,85,0.00,,,0.00,VWS V14.00,2013-10-25 04:55:00,